Time,TemperatureF,DewpointF,PressureIn,WindDirection,WindDirectionDegrees,WindSpeedMPH,WindSpeedGustMPH,Humidity,HourlyPrecipIn,Conditions,Clouds,dailyrainin,SoftwareType,DateUTC
2013-10-07 00:01:00,55.2,53.4,29.82,West,270,0.0,0.0,94,0.00,,,0.00,WUHU216HW,2013-10-07 04:01:00,
2013-10-07 00:02:00,55.2,53.4,29.82,WSW,248,0.0,0.0,94,0.00,,,0.00,WUHU216HW,2013-10-07 04:02:00,
2013-10-07 00:03:00,55.2,53.4,29.82,WSW,248,0.0,0.0,94,0.00,,,0.00,WUHU216HW,2013-10-07 04:03:00,
2013-10-07 00:08:00,55.0,53.3,29.82,West,270,0.0,0.0,94,0.00,,,0.00,WUHU216HW,2013-10-07 04:08:00,
2013-10-07 00:13:00,54.8,53.1,29.81,SSE,158,0.0,0.0,94,0.00,,,0.00,WUHU216HW,2013-10-07 04:13:00,
2013-10-07 00:18:00,54.6,52.9,29.82,North,0,0.0,0.6,94,0.00,,,0.00,WUHU216HW,2013-10-07 04:18:00,
2013-10-07 00:23:00,54.5,52.7,29.82,SE,135,0.0,0.6,94,0.00,,,0.00,WUHU216HW,2013-10-07 04:23:00,
2013-10-07 00:28:00,54.3,52.5,29.82,WNW,293,0.0,0.0,94,0.00,,,0.00,WUHU216HW,2013-10-07 04:28:00,
2013-10-07 00:33:00,54.1,52.4,29.82,South,180,0.0,0.0,94,0.00,,,0.00,WUHU216HW,2013-10-07 04:33:00,
2013-10-07 00:38:00,53.9,52.2,29.83,SSE,158,0.0,0.0,94,0.00,,,0.00,WUHU216HW,2013-10-07 04:38:00,
2013-10-07 00:44:00,53.7,52.0,29.82,NW,315,0.0,0.0,94,0.00,,,0.00,WUHU216HW,2013-10-07 04:44:00,
2013-10-07 00:49:00,53.4,51.6,29.82,West,270,0.0,0.0,94,0.00,,,0.00,WUHU216HW,2013-10-07 04:49:00,
2013-10-07 00:54:00,53.4,51.6,29.80,NNW,338,0.0,0.0,94,0.00,,,0.00,WUHU216HW,2013-10-07 04:54:00,
2013-10-07 00:59:00,53.4,51.6,29.81,SW,225,0.0,0.0,94,0.00,,,0.00,WUHU216HW,2013-10-07 04:59:00,
2013-10-07 01:04:00,53.2,51.5,29.81,WSW,248,0.0,0.0,94,0.00,,,0.00,WUHU216HW,2013-10-07 05:04:00,
2013-10-07 01:09:00,53.0,51.3,29.81,WSW,248,0.0,0.0,94,0.00,,,0.00,WUHU216HW,2013-10-07 05:09:00,
2013-10-07 01:14:00,52.8,51.1,29.82,SSE,158,0.0,0.0,94,0.00,,,0.00,WUHU216HW,2013-10-07 05:14:00,
2013-10-07 01:19:00,52.8,51.1,29.81,South,180,1.7,1.7,94,0.00,,,0.00,WUHU216HW,2013-10-07 05:19:00,
2013-10-07 01:24:00,52.8,51.1,29.81,SW,225,0.0,1.7,94,0.00,,,0.00,WUHU216HW,2013-10-07 05:24:00,
2013-10-07 01:29:00,52.7,50.9,29.81,South,180,0.0,1.7,94,0.00,,,0.00,WUHU216HW,2013-10-07 05:29:00,
2013-10-07 01:34:00,52.7,50.9,29.81,WNW,293,0.0,0.0,94,0.00,,,0.00,WUHU216HW,2013-10-07 05:34:00,
2013-10-07 01:39:00,52.5,50.7,29.81,ENE,68,0.0,0.0,94,0.00,,,0.00,WUHU216HW,2013-10-07 05:39:00,
2013-10-07 01:44:00,52.3,50.6,29.80,SW,225,0.0,0.0,94,0.00,,,0.00,WUHU216HW,2013-10-07 05:44:00,
2013-10-07 01:49:00,52.3,50.3,29.80,SW,225,0.0,0.0,93,0.00,,,0.00,WUHU216HW,2013-10-07 05:49:00,
2013-10-07 01:54:00,51.9,49.9,29.81,South,180,0.0,0.0,93,0.00,,,0.00,WUHU216HW,2013-10-07 05:54:00,
2013-10-07 01:59:00,51.8,50.0,29.81,SSW,203,0.0,0.0,94,0.00,,,0.00,WUHU216HW,2013-10-07 05:59:00,
2013-10-07 02:04:00,51.8,50.0,29.81,South,180,0.0,0.0,94,0.00,,,0.00,WUHU216HW,2013-10-07 06:04:00,
2013-10-07 02:10:00,51.6,49.8,29.80,NNW,338,0.0,0.0,94,0.00,,,0.00,WUHU216HW,2013-10-07 06:10:00,
2013-10-07 02:15:00,51.4,49.7,29.80,SSW,203,0.0,0.0,94,0.00,,,0.00,WUHU216HW,2013-10-07 06:15:00,
2013-10-07 02:20:00,51.4,49.7,29.81,South,180,0.0,0.0,94,0.00,,,0.00,WUHU216HW,2013-10-07 06:20:00,
2013-10-07 02:25:00,51.2,49.5,29.80,SE,135,0.0,0.0,94,0.00,,,0.00,WUHU216HW,2013-10-07 06:25:00,
2013-10-07 02:30:00,51.0,49.3,29.81,SSW,203,0.0,0.0,94,0.00,,,0.00,WUHU216HW,2013-10-07 06:30:00,
2013-10-07 02:35:00,51.0,49.3,29.80,WNW,293,0.0,0.0,94,0.00,,,0.00,WUHU216HW,2013-10-07 06:35:00,
2013-10-07 02:40:00,50.9,49.1,29.80,South,180,0.0,0.0,94,0.00,,,0.00,WUHU216HW,2013-10-07 06:40:00,
2013-10-07 02:45:00,50.7,48.9,29.81,NW,315,0.0,0.0,94,0.00,,,0.00,WUHU216HW,2013-10-07 06:45:00,
2013-10-07 02:50:00,50.7,48.9,29.81,West,270,0.0,3.1,94,0.00,,,0.00,WUHU216HW,2013-10-07 06:50:00,
2013-10-07 02:55:00,50.5,48.8,29.80,SE,135,0.0,3.1,94,0.00,,,0.00,WUHU216HW,2013-10-07 06:55:00,
2013-10-07 03:00:00,50.3,48.6,29.81,SW,225,0.0,3.8,94,0.00,,,0.00,WUHU216HW,2013-10-07 07:00:00,
2013-10-07 03:05:00,50.1,48.4,29.80,South,180,0.0,3.8,94,0.00,,,0.00,WUHU216HW,2013-10-07 07:05:00,
2013-10-07 03:10:00,50.1,48.4,29.80,SW,225,0.0,2.0,94,0.00,,,0.00,WUHU216HW,2013-10-07 07:10:00,
2013-10-07 03:15:00,50.1,48.4,29.80,NE,45,0.0,2.0,94,0.00,,,0.00,WUHU216HW,2013-10-07 07:15:00,
2013-10-07 03:20:00,49.8,48.0,29.80,ESE,113,0.0,0.0,94,0.00,,,0.00,WUHU216HW,2013-10-07 07:20:00,
2013-10-07 03:26:00,49.8,48.0,29.79,SW,225,0.0,2.4,94,0.00,,,0.00,WUHU216HW,2013-10-07 07:26:00,
2013-10-07 03:31:00,49.8,48.0,29.80,SSW,203,5.1,5.1,94,0.00,,,0.00,WUHU216HW,2013-10-07 07:31:00,
2013-10-07 03:36:00,49.6,47.9,29.79,WSW,248,0.0,5.1,94,0.00,,,0.00,WUHU216HW,2013-10-07 07:36:00,
2013-10-07 03:41:00,49.6,47.9,29.80,East,90,0.0,2.0,94,0.00,,,0.00,WUHU216HW,2013-10-07 07:41:00,
2013-10-07 03:46:00,49.6,47.9,29.80,SE,135,0.0,3.5,94,0.00,,,0.00,WUHU216HW,2013-10-07 07:46:00,
2013-10-07 03:51:00,49.6,47.9,29.79,SE,135,0.0,3.5,94,0.00,,,0.00,WUHU216HW,2013-10-07 07:51:00,
2013-10-07 03:56:00,49.2,47.5,29.80,South,180,2.4,2.4,94,0.00,,,0.00,WUHU216HW,2013-10-07 07:56:00,
2013-10-07 04:01:00,49.2,47.5,29.79,WNW,293,0.0,2.4,94,0.00,,,0.00,WUHU216HW,2013-10-07 08:01:00,
2013-10-07 04:06:00,49.2,47.5,29.79,SSE,158,0.0,0.0,94,0.00,,,0.00,WUHU216HW,2013-10-07 08:06:00,
2013-10-07 04:11:00,49.2,47.5,29.79,SSE,158,1.3,1.3,94,0.00,,,0.00,WUHU216HW,2013-10-07 08:11:00,
2013-10-07 04:16:00,48.9,47.4,29.79,South,180,0.0,1.3,94,0.00,,,0.00,WUHU216HW,2013-10-07 08:16:00,
2013-10-07 04:21:00,48.9,47.2,29.79,NNE,23,0.0,0.0,94,0.00,,,0.00,WUHU216HW,2013-10-07 08:21:00,
2013-10-07 04:26:00,48.9,47.2,29.80,West,270,0.0,0.0,94,0.00,,,0.00,WUHU216HW,2013-10-07 08:26:00,
2013-10-07 04:31:00,48.7,47.0,29.79,North,0,2.4,2.4,94,0.00,,,0.00,WUHU216HW,2013-10-07 08:31:00,
2013-10-07 04:36:00,48.7,47.0,29.79,ENE,68,0.0,2.4,94,0.00,,,0.00,WUHU216HW,2013-10-07 08:36:00,
2013-10-07 04:41:00,48.7,47.0,29.80,WNW,293,0.0,2.4,94,0.00,,,0.00,WUHU216HW,2013-10-07 08:41:00,
2013-10-07 04:47:00,48.7,47.0,29.79,WSW,248,0.0,0.0,94,0.00,,,0.00,WUHU216HW,2013-10-07 08:47:00,
2013-10-07 04:52:00,48.7,47.0,29.79,West,270,0.0,0.0,94,0.00,,,0.00,WUHU216HW,2013-10-07 08:52:00,
2013-10-07 04:57:00,48.5,46.9,29.79,NE,45,0.0,0.0,94,0.00,,,0.00,WUHU216HW,2013-10-07 08:57:00,
2013-10-07 05:02:00,48.5,46.9,29.80,SSW,203,4.4,4.4,94,0.00,,,0.00,WUHU216HW,2013-10-07 09:02:00,
2013-10-07 05:07:00,48.3,46.7,29.80,South,180,0.0,4.4,94,0.00,,,0.00,WUHU216HW,2013-10-07 09:07:00,
2013-10-07 05:12:00,48.0,46.5,29.80,WSW,248,0.0,0.0,94,0.00,,,0.00,WUHU216HW,2013-10-07 09:12:00,
2013-10-07 05:17:00,48.0,46.4,29.80,WSW,248,0.0,4.6,94,0.00,,,0.00,WUHU216HW,2013-10-07 09:17:00,
2013-10-07 05:22:00,48.0,46.4,29.80,SSW,203,4.4,4.6,94,0.00,,,0.00,WUHU216HW,2013-10-07 09:22:00,
2013-10-07 05:27:00,48.0,46.4,29.80,South,180,0.0,4.4,94,0.00,,,0.00,WUHU216HW,2013-10-07 09:27:00,
2013-10-07 05:32:00,48.2,46.5,29.80,SSE,158,1.5,2.2,94,0.00,,,0.00,WUHU216HW,2013-10-07 09:32:00,
2013-10-07 05:37:00,48.3,46.7,29.80,SSE,158,2.4,3.5,94,0.00,,,0.00,WUHU216HW,2013-10-07 09:37:00,
2013-10-07 05:42:00,48.3,46.7,29.80,ESE,113,0.0,3.5,94,0.00,,,0.00,WUHU216HW,2013-10-07 09:42:00,
2013-10-07 05:47:00,48.3,46.7,29.80,SSE,158,0.0,0.0,94,0.00,,,0.00,WUHU216HW,2013-10-07 09:47:00,
2013-10-07 05:52:00,48.3,46.7,29.80,East,90,0.0,2.0,94,0.00,,,0.00,WUHU216HW,2013-10-07 09:52:00,
2013-10-07 05:57:00,48.5,46.9,29.80,South,180,2.2,6.0,94,0.00,,,0.00,WUHU216HW,2013-10-07 09:57:00,
2013-10-07 06:02:00,48.7,47.0,29.80,SW,225,0.0,6.0,94,0.00,,,0.00,WUHU216HW,2013-10-07 10:02:00,
2013-10-07 06:08:00,48.7,47.0,29.79,NNE,23,0.0,2.2,94,0.00,,,0.00,WUHU216HW,2013-10-07 10:08:00,
2013-10-07 06:13:00,48.7,47.0,29.79,SW,225,0.0,4.0,94,0.00,,,0.00,WUHU216HW,2013-10-07 10:13:00,
2013-10-07 06:18:00,48.7,47.0,29.80,NW,315,0.0,4.0,94,0.00,,,0.00,WUHU216HW,2013-10-07 10:18:00,
2013-10-07 06:23:00,48.7,47.0,29.80,WSW,248,0.0,0.0,94,0.00,,,0.00,WUHU216HW,2013-10-07 10:23:00,
2013-10-07 06:28:00,48.7,47.0,29.80,SW,225,0.0,0.0,94,0.00,,,0.00,WUHU216HW,2013-10-07 10:28:00,
2013-10-07 06:33:00,48.7,47.0,29.80,SSW,203,0.0,0.0,94,0.00,,,0.00,WUHU216HW,2013-10-07 10:33:00,
2013-10-07 06:38:00,48.7,47.0,29.80,WSW,248,0.0,1.5,94,0.00,,,0.00,WUHU216HW,2013-10-07 10:38:00,
2013-10-07 06:43:00,48.7,46.7,29.80,South,180,0.0,1.5,93,0.00,,,0.00,WUHU216HW,2013-10-07 10:43:00,
2013-10-07 06:48:00,48.7,46.7,29.80,SSW,203,0.0,0.0,93,0.00,,,0.00,WUHU216HW,2013-10-07 10:48:00,
2013-10-07 06:53:00,48.7,46.7,29.80,South,180,0.0,0.0,93,0.00,,,0.00,WUHU216HW,2013-10-07 10:53:00,
2013-10-07 06:58:00,48.7,46.7,29.80,SE,135,2.4,2.4,93,0.00,,,0.00,WUHU216HW,2013-10-07 10:58:00,
2013-10-07 07:03:00,48.7,46.7,29.80,South,180,0.0,2.4,93,0.00,,,0.00,WUHU216HW,2013-10-07 11:03:00,
2013-10-07 07:08:00,48.7,46.7,29.79,WNW,293,0.0,5.1,93,0.00,,,0.00,WUHU216HW,2013-10-07 11:08:00,
2013-10-07 07:13:00,48.7,46.7,29.79,SSW,203,2.0,5.1,93,0.00,,,0.00,WUHU216HW,2013-10-07 11:13:00,
2013-10-07 07:18:00,48.7,46.7,29.80,SSW,203,0.0,2.0,93,0.00,,,0.00,WUHU216HW,2013-10-07 11:18:00,
2013-10-07 07:24:00,48.5,46.6,29.80,South,180,0.0,2.0,93,0.00,,,0.00,WUHU216HW,2013-10-07 11:24:00,
2013-10-07 07:29:00,48.3,46.4,29.80,South,180,2.9,2.9,93,0.00,,,0.00,WUHU216HW,2013-10-07 11:29:00,
2013-10-07 07:34:00,48.3,46.4,29.78,SW,225,0.0,2.9,93,0.00,,,0.00,WUHU216HW,2013-10-07 11:34:00,
2013-10-07 07:39:00,48.3,46.4,29.79,SE,135,0.0,2.9,93,0.00,,,0.00,WUHU216HW,2013-10-07 11:39:00,
2013-10-07 07:44:00,48.5,46.6,29.79,SSW,203,2.2,2.2,93,0.00,,,0.00,WUHU216HW,2013-10-07 11:44:00,
2013-10-07 07:49:00,48.3,46.4,29.79,NNW,338,0.0,2.2,93,0.00,,,0.00,WUHU216HW,2013-10-07 11:49:00,
2013-10-07 07:54:00,48.5,46.6,29.80,SW,225,3.8,3.8,93,0.00,,,0.00,WUHU216HW,2013-10-07 11:54:00,
2013-10-07 07:59:00,48.5,46.6,29.80,SSE,158,0.0,3.8,93,0.00,,,0.00,WUHU216HW,2013-10-07 11:59:00,
2013-10-07 08:04:00,48.7,46.7,29.79,West,270,1.5,1.5,93,0.00,,,0.00,WUHU216HW,2013-10-07 12:04:00,
2013-10-07 08:09:00,48.7,46.7,29.78,SW,225,0.0,1.5,93,0.00,,,0.00,WUHU216HW,2013-10-07 12:09:00,
2013-10-07 08:14:00,48.7,46.7,29.79,SSE,158,0.0,1.5,93,0.00,,,0.00,WUHU216HW,2013-10-07 12:14:00,
2013-10-07 08:19:00,48.9,46.9,29.78,SW,225,4.9,4.9,93,0.00,,,0.00,WUHU216HW,2013-10-07 12:19:00,
2013-10-07 08:24:00,48.9,46.9,29.79,West,270,0.0,4.9,93,0.00,,,0.00,WUHU216HW,2013-10-07 12:24:00,
2013-10-07 08:29:00,48.9,46.9,29.79,SSE,158,0.0,4.9,93,0.00,,,0.00,WUHU216HW,2013-10-07 12:29:00,
2013-10-07 08:34:00,49.1,47.1,29.81,South,180,0.0,4.4,93,0.00,,,0.00,WUHU216HW,2013-10-07 12:34:00,
2013-10-07 08:39:00,49.2,47.3,29.81,West,270,0.0,4.4,93,0.00,,,0.00,WUHU216HW,2013-10-07 12:39:00,
2013-10-07 08:45:00,49.2,47.3,29.81,NW,315,0.0,0.0,93,0.00,,,0.00,WUHU216HW,2013-10-07 12:45:00,
2013-10-07 08:50:00,49.2,47.3,29.81,WSW,248,0.0,0.0,93,0.00,,,0.00,WUHU216HW,2013-10-07 12:50:00,
2013-10-07 08:55:00,49.2,47.3,29.81,NW,315,0.0,0.0,93,0.00,,,0.00,WUHU216HW,2013-10-07 12:55:00,
2013-10-07 09:00:00,49.6,47.6,29.81,WSW,248,2.4,2.4,93,0.00,,,0.00,WUHU216HW,2013-10-07 13:00:00,
2013-10-07 09:05:00,49.8,47.8,29.81,SSW,203,0.0,2.9,93,0.00,,,0.00,WUHU216HW,2013-10-07 13:05:00,
2013-10-07 09:10:00,50.1,47.8,29.81,NNE,23,2.0,2.9,93,0.00,,,0.00,WUHU216HW,2013-10-07 13:10:00,
2013-10-07 09:15:00,50.5,48.5,29.82,ENE,68,0.0,2.0,93,0.00,,,0.00,WUHU216HW,2013-10-07 13:15:00,
2013-10-07 09:20:00,50.7,48.7,29.82,SSW,203,0.0,2.0,93,0.00,,,0.00,WUHU216HW,2013-10-07 13:20:00,
2013-10-07 09:25:00,51.0,48.7,29.81,SSW,203,4.2,4.2,92,0.00,,,0.00,WUHU216HW,2013-10-07 13:25:00,
2013-10-07 09:30:00,51.4,48.8,29.81,South,180,0.0,4.2,91,0.00,,,0.00,WUHU216HW,2013-10-07 13:30:00,
2013-10-07 09:35:00,51.4,48.8,29.81,SW,225,8.5,8.5,91,0.00,,,0.00,WUHU216HW,2013-10-07 13:35:00,
2013-10-07 09:40:00,51.6,48.7,29.81,SSW,203,0.0,8.5,90,0.00,,,0.00,WUHU216HW,2013-10-07 13:40:00,
2013-10-07 09:45:00,51.6,48.7,29.81,SSE,158,0.0,2.6,90,0.00,,,0.00,WUHU216HW,2013-10-07 13:45:00,
2013-10-07 09:50:00,51.9,48.7,29.81,SSW,203,0.0,0.0,89,0.00,,,0.00,WUHU216HW,2013-10-07 13:50:00,
2013-10-07 09:55:00,52.1,48.9,29.81,West,270,0.0,1.7,89,0.00,,,0.00,WUHU216HW,2013-10-07 13:55:00,
2013-10-07 10:01:00,52.7,49.5,29.81,SSW,203,4.6,4.9,89,0.00,,,0.00,WUHU216HW,2013-10-07 14:01:00,
2013-10-07 10:06:00,53.2,49.7,29.81,ESE,113,0.0,4.9,88,0.00,,,0.00,WUHU216HW,2013-10-07 14:06:00,
2013-10-07 10:11:00,53.6,49.9,29.82,East,90,0.0,4.6,88,0.00,,,0.00,WUHU216HW,2013-10-07 14:11:00,
2013-10-07 10:16:00,53.7,49.9,29.82,NNW,338,3.1,3.1,87,0.00,,,0.00,WUHU216HW,2013-10-07 14:16:00,
2013-10-07 10:21:00,53.7,49.9,29.82,East,90,0.0,3.1,87,0.00,,,0.00,WUHU216HW,2013-10-07 14:21:00,
2013-10-07 10:26:00,53.7,49.9,29.82,SW,225,0.0,0.0,87,0.00,,,0.00,WUHU216HW,2013-10-07 14:26:00,
2013-10-07 10:31:00,53.9,50.1,29.82,East,90,0.0,0.0,87,0.00,,,0.00,WUHU216HW,2013-10-07 14:31:00,
2013-10-07 10:36:00,54.1,50.3,29.82,West,270,0.0,0.0,87,0.00,,,0.00,WUHU216HW,2013-10-07 14:36:00,
2013-10-07 10:41:00,54.1,50.3,29.82,WNW,293,0.0,0.0,87,0.00,,,0.00,WUHU216HW,2013-10-07 14:41:00,
2013-10-07 10:46:00,54.3,50.1,29.82,ENE,68,0.0,6.2,86,0.00,,,0.00,WUHU216HW,2013-10-07 14:46:00,
2013-10-07 10:51:00,54.6,50.5,29.82,NW,315,0.0,6.2,86,0.00,,,0.00,WUHU216HW,2013-10-07 14:51:00,
2013-10-07 10:56:00,55.2,51.0,29.82,WNW,293,0.0,0.0,86,0.00,,,0.00,WUHU216HW,2013-10-07 14:56:00,
2013-10-07 11:01:00,55.5,51.0,29.83,ESE,113,0.0,0.0,85,0.00,,,0.00,WUHU216HW,2013-10-07 15:01:00,
2013-10-07 11:06:00,56.4,51.6,29.83,West,270,0.0,0.0,84,0.00,,,0.00,WUHU216HW,2013-10-07 15:06:00,
2013-10-07 11:12:00,57.0,51.8,29.83,West,270,0.0,0.0,83,0.00,,,0.00,WUHU216HW,2013-10-07 15:12:00,
2013-10-07 11:17:00,56.8,51.3,29.83,SSE,158,6.2,6.2,82,0.00,,,0.00,WUHU216HW,2013-10-07 15:17:00,
2013-10-07 11:22:00,56.8,51.3,29.84,West,270,0.0,6.2,82,0.00,,,0.00,WUHU216HW,2013-10-07 15:22:00,
2013-10-07 11:27:00,56.8,51.3,29.84,ESE,113,0.0,0.0,82,0.00,,,0.00,WUHU216HW,2013-10-07 15:27:00,
2013-10-07 11:32:00,56.8,51.0,29.84,SW,225,0.0,0.0,81,0.00,,,0.00,WUHU216HW,2013-10-07 15:32:00,
2013-10-07 11:37:00,56.4,51.0,29.84,South,180,2.9,2.9,82,0.00,,,0.00,WUHU216HW,2013-10-07 15:37:00,
2013-10-07 11:42:00,55.7,50.2,29.85,WSW,248,2.9,2.9,82,0.00,,,0.00,WUHU216HW,2013-10-07 15:42:00,
2013-10-07 11:47:00,54.6,49.5,29.85,SE,135,0.0,2.9,83,0.00,,,0.00,WUHU216HW,2013-10-07 15:47:00,
2013-10-07 11:52:00,53.9,49.2,29.85,ESE,113,0.0,1.3,84,0.00,,,0.00,WUHU216HW,2013-10-07 15:52:00,
2013-10-07 11:57:00,53.4,49.0,29.84,South,180,0.0,2.4,85,0.00,,,0.00,WUHU216HW,2013-10-07 15:57:00,
2013-10-07 12:02:00,53.4,49.6,29.85,SW,225,0.0,2.4,87,0.00,,,0.00,WUHU216HW,2013-10-07 16:02:00,
2013-10-07 12:07:00,53.4,49.6,29.85,West,270,0.0,0.0,87,0.00,,,0.00,WUHU216HW,2013-10-07 16:07:00,
2013-10-07 12:12:00,53.4,49.6,29.86,NW,315,2.0,2.0,87,0.00,,,0.00,WUHU216HW,2013-10-07 16:12:00,
2013-10-07 12:17:00,52.5,48.7,29.86,West,270,0.0,2.0,87,0.00,,,0.00,WUHU216HW,2013-10-07 16:17:00,
2013-10-07 12:22:00,51.6,47.5,29.87,SW,225,0.0,0.6,86,0.00,,,0.00,WUHU216HW,2013-10-07 16:22:00,
2013-10-07 12:27:00,50.9,47.1,29.86,SE,135,0.0,0.0,87,0.00,,,0.00,WUHU216HW,2013-10-07 16:27:00,
2013-10-07 12:33:00,50.1,46.6,29.87,NE,45,0.0,0.0,88,0.00,,,0.00,WUHU216HW,2013-10-07 16:33:00,
2013-10-07 12:38:00,50.1,46.6,29.87,SSW,203,0.0,5.1,88,0.00,,,0.00,WUHU216HW,2013-10-07 16:38:00,
2013-10-07 12:43:00,50.1,46.9,29.87,WNW,293,0.0,5.1,89,0.00,,,0.00,WUHU216HW,2013-10-07 16:43:00,
2013-10-07 12:48:00,50.1,46.9,29.87,North,0,0.0,3.8,89,0.00,,,0.00,WUHU216HW,2013-10-07 16:48:00,
2013-10-07 12:53:00,50.5,47.6,29.87,SW,225,0.0,0.0,90,0.00,,,0.00,WUHU216HW,2013-10-07 16:53:00,
2013-10-07 12:58:00,51.0,48.2,29.87,West,270,0.0,0.0,90,0.00,,,0.00,WUHU216HW,2013-10-07 16:58:00,
2013-10-07 13:03:00,51.4,48.5,29.88,NNW,338,2.2,2.2,90,0.00,,,0.00,WUHU216HW,2013-10-07 17:03:00,
2013-10-07 13:08:00,52.5,49.6,29.88,NNW,338,0.0,2.2,90,0.00,,,0.00,WUHU216HW,2013-10-07 17:08:00,
2013-10-07 13:13:00,54.6,51.8,29.88,North,0,0.0,0.0,90,0.00,,,0.00,WUHU216HW,2013-10-07 17:13:00,
2013-10-07 13:18:00,56.6,53.1,29.87,SW,225,2.4,2.4,88,0.00,,,0.00,WUHU216HW,2013-10-07 17:18:00,
2013-10-07 13:23:00,57.0,52.8,29.88,NNW,338,0.0,2.4,86,0.00,,,0.00,WUHU216HW,2013-10-07 17:23:00,
2013-10-07 13:28:00,59.1,54.0,29.88,NNW,338,0.0,0.0,83,0.00,,,0.00,WUHU216HW,2013-10-07 17:28:00,
2013-10-07 13:33:00,62.6,55.9,29.88,NNE,23,0.0,0.0,79,0.00,,,0.00,WUHU216HW,2013-10-07 17:33:00,
2013-10-07 13:38:00,68.7,58.1,29.88,SW,225,3.5,3.5,69,0.00,,,0.00,WUHU216HW,2013-10-07 17:38:00,
2013-10-07 13:43:00,68.9,56.6,29.88,WSW,248,0.0,3.5,65,0.00,,,0.00,WUHU216HW,2013-10-07 17:43:00,
2013-10-07 13:48:00,68.3,54.3,29.88,South,180,3.5,7.8,61,0.00,,,0.00,WUHU216HW,2013-10-07 17:48:00,
2013-10-07 13:54:00,68.5,55.6,29.89,South,180,0.0,7.8,61,0.00,,,0.00,WUHU216HW,2013-10-07 17:54:00,
2013-10-07 13:59:00,70.1,54.2,29.89,ENE,68,0.0,0.0,57,0.00,,,0.00,WUHU216HW,2013-10-07 17:59:00,
2013-10-07 14:04:00,69.6,52.1,29.89,NW,315,2.9,2.9,54,0.00,,,0.00,WUHU216HW,2013-10-07 18:04:00,
2013-10-07 14:09:00,69.0,52.1,29.89,West,270,0.0,2.9,55,0.00,,,0.00,WUHU216HW,2013-10-07 18:09:00,
2013-10-07 14:14:00,71.2,52.6,29.89,NNE,23,0.0,2.9,52,0.00,,,0.00,WUHU216HW,2013-10-07 18:14:00,
2013-10-07 14:19:00,73.5,51.9,29.89,NE,45,1.7,2.9,47,0.00,,,0.00,WUHU216HW,2013-10-07 18:19:00,
2013-10-07 14:24:00,74.1,53.1,29.90,NNE,23,0.0,1.7,49,0.00,,,0.00,WUHU216HW,2013-10-07 18:24:00,
2013-10-07 14:29:00,74.6,52.4,29.89,NNW,338,2.6,2.6,46,0.00,,,0.00,WUHU216HW,2013-10-07 18:29:00,
2013-10-07 14:34:00,74.6,51.2,29.90,NNE,23,0.0,2.6,44,0.00,,,0.00,WUHU216HW,2013-10-07 18:34:00,
2013-10-07 14:39:00,77.0,52.7,29.91,SW,225,3.1,3.1,43,0.00,,,0.00,WUHU216HW,2013-10-07 18:39:00,
2013-10-07 14:44:00,74.8,49.5,29.91,NNW,338,0.0,3.1,41,0.00,,,0.00,WUHU216HW,2013-10-07 18:44:00,
2013-10-07 14:49:00,73.5,50.1,29.91,West,270,5.3,5.3,44,0.00,,,0.00,WUHU216HW,2013-10-07 18:49:00,
2013-10-07 14:54:00,74.4,51.0,29.92,NNE,23,5.5,5.5,44,0.00,,,0.00,WUHU216HW,2013-10-07 18:54:00,
2013-10-07 14:59:00,75.7,49.0,29.91,West,270,0.0,5.5,39,0.00,,,0.00,WUHU216HW,2013-10-07 18:59:00,
2013-10-07 15:04:00,78.0,52.4,29.91,SE,135,0.0,4.6,41,0.00,,,0.00,WUHU216HW,2013-10-07 19:04:00,
2013-10-07 15:09:00,80.2,53.0,29.92,NNW,338,0.0,3.1,39,0.00,,,0.00,WUHU216HW,2013-10-07 19:09:00,
2013-10-07 15:14:00,79.5,50.0,29.92,WSW,248,0.0,2.9,36,0.00,,,0.00,WUHU216HW,2013-10-07 19:14:00,
2013-10-07 15:19:00,77.1,49.5,29.92,NW,315,5.3,7.3,38,0.00,,,0.00,WUHU216HW,2013-10-07 19:19:00,
2013-10-07 15:25:00,75.9,49.1,29.93,WSW,248,0.0,7.3,39,0.00,,,0.00,WUHU216HW,2013-10-07 19:25:00,
2013-10-07 15:30:00,73.5,49.0,29.94,WSW,248,0.0,5.3,42,0.00,,,0.00,WUHU216HW,2013-10-07 19:30:00,
2013-10-07 15:35:00,68.9,45.9,29.94,NE,45,0.0,0.0,44,0.00,,,0.00,WUHU216HW,2013-10-07 19:35:00,
2013-10-07 15:40:00,64.9,44.1,29.95,NW,315,0.0,0.0,47,0.00,,,0.00,WUHU216HW,2013-10-07 19:40:00,
2013-10-07 15:45:00,62.7,44.3,29.95,NE,45,2.2,2.2,51,0.00,,,0.00,WUHU216HW,2013-10-07 19:45:00,
2013-10-07 15:50:00,64.7,47.1,29.95,ENE,68,0.0,2.2,53,0.00,,,0.00,WUHU216HW,2013-10-07 19:50:00,
2013-10-07 15:55:00,71.9,50.5,29.95,WNW,293,0.0,0.0,47,0.00,,,0.00,WUHU216HW,2013-10-07 19:55:00,
2013-10-07 16:00:00,75.2,50.5,29.95,North,0,2.4,2.4,42,0.00,,,0.00,WUHU216HW,2013-10-07 20:00:00,
2013-10-07 16:05:00,76.2,50.2,29.96,NNE,23,0.0,2.4,40,0.00,,,0.00,WUHU216HW,2013-10-07 20:05:00,
2013-10-07 16:10:00,78.6,51.5,29.96,NNW,338,0.0,2.4,39,0.00,,,0.00,WUHU216HW,2013-10-07 20:10:00,
2013-10-07 16:15:00,77.3,48.1,29.96,NE,45,0.0,2.6,36,0.00,,,0.00,WUHU216HW,2013-10-07 20:15:00,
2013-10-07 16:20:00,72.6,47.0,29.97,NNE,23,4.2,4.2,40,0.00,,,0.00,WUHU216HW,2013-10-07 20:20:00,
2013-10-07 16:25:00,66.9,44.7,29.97,North,0,1.7,4.2,45,0.00,,,0.00,WUHU216HW,2013-10-07 20:25:00,
2013-10-07 16:30:00,64.2,44.0,29.98,WNW,293,0.0,3.8,48,0.00,,,0.00,WUHU216HW,2013-10-07 20:30:00,
2013-10-07 16:36:00,63.1,44.6,29.99,West,270,0.0,3.8,51,0.00,,,0.00,WUHU216HW,2013-10-07 20:36:00,
2013-10-07 16:41:00,62.4,44.5,29.99,WNW,293,0.0,2.4,52,0.00,,,0.00,WUHU216HW,2013-10-07 20:41:00,
2013-10-07 16:46:00,62.2,44.8,29.99,NNE,23,0.0,2.4,53,0.00,,,0.00,WUHU216HW,2013-10-07 20:46:00,
2013-10-07 16:51:00,61.8,44.9,29.99,NNW,338,0.0,0.0,54,0.00,,,0.00,WUHU216HW,2013-10-07 20:51:00,
2013-10-07 16:56:00,62.7,46.2,29.99,ENE,68,0.0,0.0,55,0.00,,,0.00,WUHU216HW,2013-10-07 20:56:00,
2013-10-07 17:01:00,64.7,47.1,30.00,SSW,203,2.4,2.4,53,0.00,,,0.00,WUHU216HW,2013-10-07 21:01:00,
2013-10-07 17:06:00,62.4,44.9,30.01,SSW,203,0.0,2.4,53,0.00,,,0.00,WUHU216HW,2013-10-07 21:06:00,
2013-10-07 17:11:00,61.1,44.3,30.01,West,270,0.0,0.0,54,0.00,,,0.00,WUHU216HW,2013-10-07 21:11:00,
2013-10-07 17:16:00,59.7,43.9,30.01,SSW,203,0.0,0.0,56,0.00,,,0.00,WUHU216HW,2013-10-07 21:16:00,
2013-10-07 17:21:00,57.9,43.7,30.02,NW,315,0.0,0.0,59,0.00,,,0.00,WUHU216HW,2013-10-07 21:21:00,
2013-10-07 17:26:00,57.2,43.5,30.02,SSE,158,0.0,0.0,60,0.00,,,0.00,WUHU216HW,2013-10-07 21:26:00,
2013-10-07 17:31:00,56.4,43.1,30.02,WNW,293,0.0,3.3,61,0.00,,,0.00,WUHU216HW,2013-10-07 21:31:00,
2013-10-07 17:36:00,55.9,43.4,30.03,South,180,0.0,9.6,63,0.00,,,0.00,WUHU216HW,2013-10-07 21:36:00,
2013-10-07 17:41:00,55.9,43.4,30.03,SSW,203,0.0,9.6,63,0.00,,,0.00,WUHU216HW,2013-10-07 21:41:00,
2013-10-07 17:46:00,55.5,43.5,30.03,South,180,0.0,0.0,64,0.00,,,0.00,WUHU216HW,2013-10-07 21:46:00,
2013-10-07 17:52:00,54.6,43.1,30.04,NNW,338,0.0,0.0,65,0.00,,,0.00,WUHU216HW,2013-10-07 21:52:00,
2013-10-07 17:57:00,54.3,43.5,30.04,SW,225,0.0,0.0,67,0.00,,,0.00,WUHU216HW,2013-10-07 21:57:00,
2013-10-07 18:02:00,54.1,43.7,30.04,SW,225,0.0,0.0,68,0.00,,,0.00,WUHU216HW,2013-10-07 22:02:00,
2013-10-07 18:07:00,54.3,44.3,30.05,SW,225,4.2,4.2,69,0.00,,,0.00,WUHU216HW,2013-10-07 22:07:00,
2013-10-07 18:12:00,54.3,44.3,30.06,SW,225,0.0,4.2,69,0.00,,,0.00,WUHU216HW,2013-10-07 22:12:00,
2013-10-07 18:17:00,54.5,44.5,30.06,SW,225,0.0,4.2,69,0.00,,,0.00,WUHU216HW,2013-10-07 22:17:00,
2013-10-07 18:22:00,54.5,44.5,30.06,NW,315,0.0,0.0,69,0.00,,,0.00,WUHU216HW,2013-10-07 22:22:00,
2013-10-07 18:27:00,54.3,43.9,30.07,WSW,248,0.0,0.0,68,0.00,,,0.00,WUHU216HW,2013-10-07 22:27:00,
2013-10-07 18:32:00,54.1,43.3,30.07,SE,135,0.0,0.0,67,0.00,,,0.00,WUHU216HW,2013-10-07 22:32:00,
2013-10-07 18:37:00,53.4,43.0,30.07,North,0,0.0,0.0,68,0.00,,,0.00,WUHU216HW,2013-10-07 22:37:00,
2013-10-07 18:42:00,52.7,42.8,30.07,SW,225,0.0,0.0,68,0.00,,,0.00,WUHU216HW,2013-10-07 22:42:00,
2013-10-07 18:47:00,52.1,42.7,30.08,NNW,338,0.0,0.0,70,0.00,,,0.00,WUHU216HW,2013-10-07 22:47:00,
2013-10-07 18:52:00,51.8,42.4,30.09,WNW,293,0.0,0.0,70,0.00,,,0.00,WUHU216HW,2013-10-07 22:52:00,
2013-10-07 18:57:00,51.0,42.4,30.08,North,0,0.0,0.0,72,0.00,,,0.00,WUHU216HW,2013-10-07 22:57:00,
2013-10-07 19:02:00,50.5,41.8,30.09,ESE,113,0.0,0.0,72,0.00,,,0.00,WUHU216HW,2013-10-07 23:02:00,
2013-10-07 19:08:00,50.1,41.8,30.09,SSE,158,0.0,0.0,73,0.00,,,0.00,WUHU216HW,2013-10-07 23:08:00,
2013-10-07 19:13:00,49.6,41.9,30.09,SW,225,0.0,0.0,75,0.00,,,0.00,WUHU216HW,2013-10-07 23:13:00,
2013-10-07 19:18:00,49.1,41.7,30.10,WSW,248,0.0,0.0,76,0.00,,,0.00,WUHU216HW,2013-10-07 23:18:00,
2013-10-07 19:23:00,48.7,41.7,30.10,WSW,248,0.0,0.0,77,0.00,,,0.00,WUHU216HW,2013-10-07 23:23:00,
2013-10-07 19:28:00,48.0,41.4,30.10,WNW,293,0.0,0.0,78,0.00,,,0.00,WUHU216HW,2013-10-07 23:28:00,
2013-10-07 19:33:00,48.0,41.7,30.11,WSW,248,0.0,0.0,79,0.00,,,0.00,WUHU216HW,2013-10-07 23:33:00,
2013-10-07 19:38:00,48.3,42.7,30.11,NNW,338,0.0,0.0,81,0.00,,,0.00,WUHU216HW,2013-10-07 23:38:00,
2013-10-07 19:43:00,48.9,43.2,30.12,North,0,0.0,0.0,81,0.00,,,0.00,WUHU216HW,2013-10-07 23:43:00,
2013-10-07 19:48:00,49.2,43.9,30.12,NNW,338,0.0,0.0,82,0.00,,,0.00,WUHU216HW,2013-10-07 23:48:00,
2013-10-07 19:53:00,49.8,44.4,30.12,WNW,293,0.0,0.0,82,0.00,,,0.00,WUHU216HW,2013-10-07 23:53:00,
2013-10-07 19:58:00,50.1,44.5,30.12,South,180,0.0,0.0,81,0.00,,,0.00,WUHU216HW,2013-10-07 23:58:00,
2013-10-07 20:03:00,50.1,44.5,30.13,ESE,113,0.0,0.0,81,0.00,,,0.00,WUHU216HW,2013-10-08 00:03:00,
2013-10-07 20:08:00,50.5,44.6,30.14,NNW,338,0.0,0.0,80,0.00,,,0.00,WUHU216HW,2013-10-08 00:08:00,
2013-10-07 20:14:00,50.5,44.6,30.14,SSE,158,0.0,0.0,80,0.00,,,0.00,WUHU216HW,2013-10-08 00:14:00,
2013-10-07 20:19:00,50.7,44.4,30.14,NW,315,0.0,0.0,79,0.00,,,0.00,WUHU216HW,2013-10-08 00:19:00,
2013-10-07 20:24:00,50.5,44.2,30.14,NW,315,0.0,0.0,79,0.00,,,0.00,WUHU216HW,2013-10-08 00:24:00,
2013-10-07 20:29:00,50.3,44.0,30.14,ENE,68,0.0,0.0,79,0.00,,,0.00,WUHU216HW,2013-10-08 00:29:00,
2013-10-07 20:34:00,50.1,43.8,30.15,West,270,0.0,0.0,79,0.00,,,0.00,WUHU216HW,2013-10-08 00:34:00,
2013-10-07 20:39:00,49.2,42.9,30.15,West,270,0.0,0.0,79,0.00,,,0.00,WUHU216HW,2013-10-08 00:39:00,
2013-10-07 20:44:00,48.7,42.2,30.16,NW,315,0.0,0.0,79,0.00,,,0.00,WUHU216HW,2013-10-08 00:44:00,
2013-10-07 20:49:00,48.0,42.0,30.16,WSW,248,0.0,0.0,80,0.00,,,0.00,WUHU216HW,2013-10-08 00:49:00,
2013-10-07 20:54:00,47.8,42.2,30.16,SW,225,0.0,0.0,81,0.00,,,0.00,WUHU216HW,2013-10-08 00:54:00,
2013-10-07 20:59:00,47.6,42.0,30.16,NNE,23,0.0,0.0,81,0.00,,,0.00,WUHU216HW,2013-10-08 00:59:00,
2013-10-07 21:04:00,47.4,41.9,30.17,WNW,293,0.0,0.0,81,0.00,,,0.00,WUHU216HW,2013-10-08 01:04:00,
2013-10-07 21:09:00,47.1,41.5,30.17,WNW,293,0.0,0.0,81,0.00,,,0.00,WUHU216HW,2013-10-08 01:09:00,
2013-10-07 21:14:00,46.5,41.4,30.17,West,270,0.0,0.0,82,0.00,,,0.00,WUHU216HW,2013-10-08 01:14:00,
2013-10-07 21:19:00,46.2,41.3,30.18,West,270,0.0,0.0,83,0.00,,,0.00,WUHU216HW,2013-10-08 01:19:00,
2013-10-07 21:24:00,46.0,41.1,30.19,West,270,0.0,0.0,83,0.00,,,0.00,WUHU216HW,2013-10-08 01:24:00,
2013-10-07 21:29:00,45.8,41.0,30.18,West,270,0.0,0.0,83,0.00,,,0.00,WUHU216HW,2013-10-08 01:29:00,
2013-10-07 21:35:00,45.5,40.6,30.19,WSW,248,0.0,0.0,83,0.00,,,0.00,WUHU216HW,2013-10-08 01:35:00,
2013-10-07 21:40:00,45.3,40.7,30.20,West,270,0.0,0.0,84,0.00,,,0.00,WUHU216HW,2013-10-08 01:40:00,
2013-10-07 21:45:00,45.1,40.6,30.20,West,270,0.0,0.0,84,0.00,,,0.00,WUHU216HW,2013-10-08 01:45:00,
2013-10-07 21:50:00,44.9,40.7,30.20,WNW,293,0.0,0.0,85,0.00,,,0.00,WUHU216HW,2013-10-08 01:50:00,
2013-10-07 21:55:00,44.7,40.5,30.20,WSW,248,0.0,0.0,85,0.00,,,0.00,WUHU216HW,2013-10-08 01:55:00,
2013-10-07 22:00:00,44.7,40.5,30.21,WSW,248,0.0,0.0,85,0.00,,,0.00,WUHU216HW,2013-10-08 02:00:00,
2013-10-07 22:05:00,44.7,40.5,30.21,WSW,248,0.0,0.0,85,0.00,,,0.00,WUHU216HW,2013-10-08 02:05:00,
2013-10-07 22:10:00,44.7,40.8,30.22,SSW,203,0.0,0.0,86,0.00,,,0.00,WUHU216HW,2013-10-08 02:10:00,
2013-10-07 22:15:00,44.4,40.4,30.22,West,270,0.0,0.0,86,0.00,,,0.00,WUHU216HW,2013-10-08 02:15:00,
2013-10-07 22:20:00,44.4,40.4,30.22,WSW,248,0.0,0.0,86,0.00,,,0.00,WUHU216HW,2013-10-08 02:20:00,
2013-10-07 22:25:00,43.8,40.2,30.22,WSW,248,0.0,0.0,87,0.00,,,0.00,WUHU216HW,2013-10-08 02:25:00,
2013-10-07 22:30:00,43.8,40.2,30.22,WSW,248,0.0,0.0,87,0.00,,,0.00,WUHU216HW,2013-10-08 02:30:00,
2013-10-07 22:35:00,43.7,40.0,30.22,SSW,203,0.0,0.0,87,0.00,,,0.00,WUHU216HW,2013-10-08 02:35:00,
2013-10-07 22:40:00,43.5,39.9,30.23,West,270,0.0,0.0,87,0.00,,,0.00,WUHU216HW,2013-10-08 02:40:00,
2013-10-07 22:45:00,43.3,39.7,30.23,West,270,0.0,0.0,87,0.00,,,0.00,WUHU216HW,2013-10-08 02:45:00,
2013-10-07 22:51:00,43.3,39.7,30.23,West,270,0.0,0.0,87,0.00,,,0.00,WUHU216HW,2013-10-08 02:51:00,
2013-10-07 22:56:00,43.1,39.8,30.23,West,270,0.0,0.0,88,0.00,,,0.00,WUHU216HW,2013-10-08 02:56:00,
2013-10-07 23:01:00,43.1,39.8,30.23,WNW,293,0.0,0.0,88,0.00,,,0.00,WUHU216HW,2013-10-08 03:01:00,
2013-10-07 23:06:00,43.1,39.8,30.24,WNW,293,0.0,0.0,88,0.00,,,0.00,WUHU216HW,2013-10-08 03:06:00,
2013-10-07 23:11:00,43.1,39.8,30.24,West,270,0.0,0.0,88,0.00,,,0.00,WUHU216HW,2013-10-08 03:11:00,
2013-10-07 23:16:00,43.1,39.8,30.24,West,270,0.0,0.0,88,0.00,,,0.00,WUHU216HW,2013-10-08 03:16:00,
2013-10-07 23:21:00,42.9,39.9,30.24,West,270,0.0,0.0,89,0.00,,,0.00,WUHU216HW,2013-10-08 03:21:00,
2013-10-07 23:26:00,42.9,39.9,30.25,West,270,0.0,0.0,89,0.00,,,0.00,WUHU216HW,2013-10-08 03:26:00,
2013-10-07 23:31:00,42.9,39.9,30.25,West,270,0.0,0.0,89,0.00,,,0.00,WUHU216HW,2013-10-08 03:31:00,
2013-10-07 23:36:00,42.6,39.6,30.25,West,270,0.0,0.0,89,0.00,,,0.00,WUHU216HW,2013-10-08 03:36:00,
2013-10-07 23:41:00,42.6,39.6,30.25,NW,315,0.0,0.0,89,0.00,,,0.00,WUHU216HW,2013-10-08 03:41:00,
2013-10-07 23:46:00,42.6,39.6,30.25,WNW,293,0.0,0.0,89,0.00,,,0.00,WUHU216HW,2013-10-08 03:46:00,
2013-10-07 23:51:00,42.4,39.4,30.25,West,270,0.0,0.0,89,0.00,,,0.00,WUHU216HW,2013-10-08 03:51:00,
2013-10-07 23:56:00,42.4,39.4,30.26,WSW,248,0.0,0.0,89,0.00,,,0.00,WUHU216HW,2013-10-08 03:56:00,